sensor_id;sensor_type;location;lat;lon;timestamp;P1;durP1;ratioP1;P2;durP2;ratioP2
10226;SDS011;15634;48.766;2.272;2024-02-26T00:01:42;12.95;;;7.35;;
10226;SDS011;15634;48.766;2.272;2024-02-26T00:04:11;11.13;;;6.68;;
10226;SDS011;15634;48.766;2.272;2024-02-26T00:06:40;12.13;;;6.85;;
10226;SDS011;15634;48.766;2.272;2024-02-26T00:09:07;12.10;;;7.32;;
10226;SDS011;15634;48.766;2.272;2024-02-26T00:11:33;13.38;;;7.82;;
10226;SDS011;15634;48.766;2.272;2024-02-26T00:13:59;12.73;;;7.45;;
10226;SDS011;15634;48.766;2.272;2024-02-26T00:16:25;22.38;;;8.60;;
10226;SDS011;15634;48.766;2.272;2024-02-26T00:18:51;11.85;;;7.68;;
10226;SDS011;15634;48.766;2.272;2024-02-26T00:21:17;15.15;;;7.32;;
10226;SDS011;15634;48.766;2.272;2024-02-26T00:23:43;16.00;;;7.03;;
10226;SDS011;15634;48.766;2.272;2024-02-26T00:26:08;17.33;;;7.03;;
10226;SDS011;15634;48.766;2.272;2024-02-26T00:28:35;11.35;;;6.40;;
10226;SDS011;15634;48.766;2.272;2024-02-26T00:31:01;13.63;;;6.50;;
10226;SDS011;15634;48.766;2.272;2024-02-26T00:33:27;10.52;;;6.22;;
10226;SDS011;15634;48.766;2.272;2024-02-26T00:35:53;11.13;;;5.43;;
10226;SDS011;15634;48.766;2.272;2024-02-26T00:38:19;13.10;;;5.22;;
10226;SDS011;15634;48.766;2.272;2024-02-26T00:40:45;12.65;;;6.30;;
10226;SDS011;15634;48.766;2.272;2024-02-26T00:43:11;9.88;;;5.18;;
10226;SDS011;15634;48.766;2.272;2024-02-26T00:45:38;11.85;;;5.18;;
10226;SDS011;15634;48.766;2.272;2024-02-26T00:48:04;10.40;;;5.43;;
10226;SDS011;15634;48.766;2.272;2024-02-26T00:50:30;10.70;;;4.93;;
10226;SDS011;15634;48.766;2.272;2024-02-26T00:52:56;11.45;;;5.57;;
10226;SDS011;15634;48.766;2.272;2024-02-26T00:55:22;12.55;;;7.03;;
10226;SDS011;15634;48.766;2.272;2024-02-26T00:57:48;13.45;;;5.68;;
10226;SDS011;15634;48.766;2.272;2024-02-26T01:00:14;12.73;;;6.68;;
10226;SDS011;15634;48.766;2.272;2024-02-26T01:02:40;14.43;;;6.68;;
10226;SDS011;15634;48.766;2.272;2024-02-26T01:05:07;15.82;;;6.07;;
10226;SDS011;15634;48.766;2.272;2024-02-26T01:07:34;16.63;;;6.20;;
10226;SDS011;15634;48.766;2.272;2024-02-26T01:10:04;10.02;;;5.50;;
10226;SDS011;15634;48.766;2.272;2024-02-26T01:12:33;11.50;;;5.60;;
10226;SDS011;15634;48.766;2.272;2024-02-26T01:14:59;14.77;;;5.20;;
10226;SDS011;15634;48.766;2.272;2024-02-26T01:17:25;12.50;;;5.22;;
10226;SDS011;15634;48.766;2.272;2024-02-26T01:19:51;11.45;;;5.47;;
10226;SDS011;15634;48.766;2.272;2024-02-26T01:22:18;15.18;;;5.05;;
10226;SDS011;15634;48.766;2.272;2024-02-26T01:24:44;12.65;;;5.25;;
10226;SDS011;15634;48.766;2.272;2024-02-26T01:27:10;11.32;;;4.82;;
10226;SDS011;15634;48.766;2.272;2024-02-26T01:29:36;13.95;;;5.18;;
10226;SDS011;15634;48.766;2.272;2024-02-26T01:32:02;14.13;;;4.93;;
10226;SDS011;15634;48.766;2.272;2024-02-26T01:34:30;10.50;;;4.45;;
10226;SDS011;15634;48.766;2.272;2024-02-26T01:36:55;10.32;;;4.60;;
10226;SDS011;15634;48.766;2.272;2024-02-26T01:39:21;10.80;;;4.80;;
10226;SDS011;15634;48.766;2.272;2024-02-26T01:41:47;10.48;;;4.68;;
10226;SDS011;15634;48.766;2.272;2024-02-26T01:44:13;14.07;;;4.35;;
10226;SDS011;15634;48.766;2.272;2024-02-26T01:46:39;12.40;;;4.50;;
10226;SDS011;15634;48.766;2.272;2024-02-26T01:49:06;10.32;;;3.75;;
10226;SDS011;15634;48.766;2.272;2024-02-26T01:51:32;11.68;;;3.92;;
10226;SDS011;15634;48.766;2.272;2024-02-26T01:53:59;11.70;;;3.67;;
10226;SDS011;15634;48.766;2.272;2024-02-26T01:56:26;15.77;;;3.78;;
10226;SDS011;15634;48.766;2.272;2024-02-26T01:58:55;12.13;;;4.15;;
10226;SDS011;15634;48.766;2.272;2024-02-26T02:01:21;14.70;;;4.35;;
10226;SDS011;15634;48.766;2.272;2024-02-26T02:03:48;12.45;;;3.70;;
10226;SDS011;15634;48.766;2.272;2024-02-26T02:06:14;13.55;;;3.78;;
10226;SDS011;15634;48.766;2.272;2024-02-26T02:08:40;21.10;;;3.90;;
10226;SDS011;15634;48.766;2.272;2024-02-26T02:11:06;13.52;;;4.03;;
10226;SDS011;15634;48.766;2.272;2024-02-26T02:13:32;12.00;;;3.28;;
10226;SDS011;15634;48.766;2.272;2024-02-26T02:15:58;16.33;;;3.80;;
10226;SDS011;15634;48.766;2.272;2024-02-26T02:18:24;15.18;;;3.85;;
10226;SDS011;15634;48.766;2.272;2024-02-26T02:20:50;15.52;;;3.75;;
10226;SDS011;15634;48.766;2.272;2024-02-26T02:23:15;15.32;;;3.50;;
10226;SDS011;15634;48.766;2.272;2024-02-26T02:25:41;18.63;;;3.53;;
10226;SDS011;15634;48.766;2.272;2024-02-26T02:28:07;13.57;;;4.07;;
10226;SDS011;15634;48.766;2.272;2024-02-26T02:30:33;15.63;;;3.70;;
10226;SDS011;15634;48.766;2.272;2024-02-26T02:33:00;12.07;;;3.35;;
10226;SDS011;15634;48.766;2.272;2024-02-26T02:35:27;15.10;;;3.95;;
10226;SDS011;15634;48.766;2.272;2024-02-26T02:37:53;14.50;;;3.60;;
10226;SDS011;15634;48.766;2.272;2024-02-26T02:40:19;10.40;;;3.30;;
10226;SDS011;15634;48.766;2.272;2024-02-26T02:42:45;8.57;;;3.83;;
10226;SDS011;15634;48.766;2.272;2024-02-26T02:45:11;14.38;;;3.33;;
10226;SDS011;15634;48.766;2.272;2024-02-26T02:47:37;16.75;;;4.30;;
10226;SDS011;15634;48.766;2.272;2024-02-26T02:50:03;19.13;;;3.60;;
10226;SDS011;15634;48.766;2.272;2024-02-26T02:52:29;19.13;;;4.03;;
10226;SDS011;15634;48.766;2.272;2024-02-26T02:54:55;14.77;;;3.50;;
10226;SDS011;15634;48.766;2.272;2024-02-26T02:57:20;13.48;;;3.65;;
10226;SDS011;15634;48.766;2.272;2024-02-26T02:59:46;14.27;;;3.80;;
10226;SDS011;15634;48.766;2.272;2024-02-26T03:02:12;17.27;;;3.80;;
10226;SDS011;15634;48.766;2.272;2024-02-26T03:04:39;16.17;;;3.72;;
10226;SDS011;15634;48.766;2.272;2024-02-26T03:07:05;15.25;;;4.32;;
10226;SDS011;15634;48.766;2.272;2024-02-26T03:09:31;17.83;;;4.22;;
10226;SDS011;15634;48.766;2.272;2024-02-26T03:11:57;16.30;;;4.07;;
10226;SDS011;15634;48.766;2.272;2024-02-26T03:14:23;18.98;;;4.38;;
10226;SDS011;15634;48.766;2.272;2024-02-26T03:16:52;16.52;;;4.47;;
10226;SDS011;15634;48.766;2.272;2024-02-26T03:19:18;16.63;;;4.13;;
10226;SDS011;15634;48.766;2.272;2024-02-26T03:21:44;14.48;;;4.57;;
10226;SDS011;15634;48.766;2.272;2024-02-26T03:24:10;13.38;;;4.28;;
10226;SDS011;15634;48.766;2.272;2024-02-26T03:26:37;16.13;;;4.05;;
10226;SDS011;15634;48.766;2.272;2024-02-26T03:29:03;12.75;;;3.70;;
10226;SDS011;15634;48.766;2.272;2024-02-26T03:31:29;18.75;;;3.65;;
10226;SDS011;15634;48.766;2.272;2024-02-26T03:33:55;20.45;;;4.20;;
10226;SDS011;15634;48.766;2.272;2024-02-26T03:36:21;18.30;;;3.75;;
10226;SDS011;15634;48.766;2.272;2024-02-26T03:38:47;21.95;;;4.07;;
10226;SDS011;15634;48.766;2.272;2024-02-26T03:41:13;22.65;;;4.57;;
10226;SDS011;15634;48.766;2.272;2024-02-26T03:43:40;16.25;;;3.92;;
10226;SDS011;15634;48.766;2.272;2024-02-26T03:46:09;8.80;;;3.30;;
10226;SDS011;15634;48.766;2.272;2024-02-26T03:48:39;18.27;;;3.80;;
10226;SDS011;15634;48.766;2.272;2024-02-26T03:51:05;12.65;;;3.75;;
10226;SDS011;15634;48.766;2.272;2024-02-26T03:53:31;15.77;;;3.53;;
10226;SDS011;15634;48.766;2.272;2024-02-26T03:55:57;16.70;;;4.30;;
10226;SDS011;15634;48.766;2.272;2024-02-26T03:58:23;17.92;;;4.15;;
10226;SDS011;15634;48.766;2.272;2024-02-26T04:00:50;16.58;;;3.60;;
10226;SDS011;15634;48.766;2.272;2024-02-26T04:03:16;15.23;;;4.00;;
10226;SDS011;15634;48.766;2.272;2024-02-26T04:05:42;15.63;;;3.42;;
10226;SDS011;15634;48.766;2.272;2024-02-26T04:08:08;13.98;;;3.53;;
10226;SDS011;15634;48.766;2.272;2024-02-26T04:10:35;15.85;;;3.47;;
10226;SDS011;15634;48.766;2.272;2024-02-26T04:13:03;16.20;;;4.25;;
10226;SDS011;15634;48.766;2.272;2024-02-26T04:15:29;14.98;;;3.55;;
10226;SDS011;15634;48.766;2.272;2024-02-26T04:17:55;17.30;;;3.53;;
10226;SDS011;15634;48.766;2.272;2024-02-26T04:20:21;13.35;;;3.55;;
10226;SDS011;15634;48.766;2.272;2024-02-26T04:22:47;17.17;;;3.95;;
10226;SDS011;15634;48.766;2.272;2024-02-26T04:25:13;11.15;;;3.58;;
10226;SDS011;15634;48.766;2.272;2024-02-26T04:27:40;13.57;;;3.60;;
10226;SDS011;15634;48.766;2.272;2024-02-26T04:30:06;16.25;;;3.55;;
10226;SDS011;15634;48.766;2.272;2024-02-26T04:32:32;16.25;;;3.97;;
10226;SDS011;15634;48.766;2.272;2024-02-26T04:34:59;14.10;;;3.72;;
10226;SDS011;15634;48.766;2.272;2024-02-26T04:37:25;16.98;;;3.65;;
10226;SDS011;15634;48.766;2.272;2024-02-26T04:39:55;16.67;;;3.53;;
10226;SDS011;15634;48.766;2.272;2024-02-26T04:42:21;15.10;;;3.30;;
10226;SDS011;15634;48.766;2.272;2024-02-26T04:44:47;20.35;;;3.92;;
10226;SDS011;15634;48.766;2.272;2024-02-26T04:47:13;16.35;;;4.00;;
10226;SDS011;15634;48.766;2.272;2024-02-26T04:49:39;10.98;;;3.53;;
10226;SDS011;15634;48.766;2.272;2024-02-26T04:52:05;13.85;;;3.70;;
10226;SDS011;15634;48.766;2.272;2024-02-26T04:54:31;14.15;;;3.78;;
10226;SDS011;15634;48.766;2.272;2024-02-26T04:56:56;11.05;;;3.25;;
10226;SDS011;15634;48.766;2.272;2024-02-26T04:59:22;16.00;;;3.70;;
10226;SDS011;15634;48.766;2.272;2024-02-26T05:01:48;11.82;;;3.88;;
10226;SDS011;15634;48.766;2.272;2024-02-26T05:04:14;11.63;;;3.72;;
10226;SDS011;15634;48.766;2.272;2024-02-26T05:06:39;14.70;;;3.90;;
10226;SDS011;15634;48.766;2.272;2024-02-26T05:09:05;14.15;;;3.60;;
10226;SDS011;15634;48.766;2.272;2024-02-26T05:11:31;11.82;;;3.53;;
10226;SDS011;15634;48.766;2.272;2024-02-26T05:13:57;11.82;;;3.85;;
10226;SDS011;15634;48.766;2.272;2024-02-26T05:16:25;14.50;;;3.75;;
10226;SDS011;15634;48.766;2.272;2024-02-26T05:18:52;18.20;;;4.30;;
10226;SDS011;15634;48.766;2.272;2024-02-26T05:21:18;16.25;;;3.45;;
10226;SDS011;15634;48.766;2.272;2024-02-26T05:23:44;14.38;;;3.63;;
10226;SDS011;15634;48.766;2.272;2024-02-26T05:26:10;13.80;;;3.55;;
10226;SDS011;15634;48.766;2.272;2024-02-26T05:28:36;10.45;;;3.45;;
10226;SDS011;15634;48.766;2.272;2024-02-26T05:31:04;16.40;;;4.40;;
10226;SDS011;15634;48.766;2.272;2024-02-26T05:33:30;14.18;;;4.43;;
10226;SDS011;15634;48.766;2.272;2024-02-26T05:35:56;14.25;;;4.30;;
10226;SDS011;15634;48.766;2.272;2024-02-26T05:38:28;18.73;;;4.65;;
10226;SDS011;15634;48.766;2.272;2024-02-26T05:40:56;15.73;;;4.68;;
10226;SDS011;15634;48.766;2.272;2024-02-26T05:43:22;23.85;;;5.50;;
10226;SDS011;15634;48.766;2.272;2024-02-26T05:45:48;15.20;;;4.50;;
10226;SDS011;15634;48.766;2.272;2024-02-26T05:48:13;15.27;;;4.20;;
10226;SDS011;15634;48.766;2.272;2024-02-26T05:50:39;18.33;;;4.00;;
10226;SDS011;15634;48.766;2.272;2024-02-26T05:53:05;24.45;;;4.40;;
10226;SDS011;15634;48.766;2.272;2024-02-26T05:55:31;15.52;;;4.07;;
10226;SDS011;15634;48.766;2.272;2024-02-26T05:57:57;12.27;;;4.03;;
10226;SDS011;15634;48.766;2.272;2024-02-26T06:00:23;21.55;;;4.15;;
10226;SDS011;15634;48.766;2.272;2024-02-26T06:02:49;17.92;;;4.10;;
10226;SDS011;15634;48.766;2.272;2024-02-26T06:05:15;15.52;;;4.07;;
10226;SDS011;15634;48.766;2.272;2024-02-26T06:07:41;15.25;;;4.13;;
10226;SDS011;15634;48.766;2.272;2024-02-26T06:10:07;18.38;;;4.72;;
10226;SDS011;15634;48.766;2.272;2024-02-26T06:12:35;15.20;;;3.90;;
10226;SDS011;15634;48.766;2.272;2024-02-26T06:15:01;10.45;;;3.95;;
10226;SDS011;15634;48.766;2.272;2024-02-26T06:17:26;15.75;;;4.50;;
10226;SDS011;15634;48.766;2.272;2024-02-26T06:19:53;16.35;;;4.72;;
10226;SDS011;15634;48.766;2.272;2024-02-26T06:22:19;15.90;;;4.28;;
10226;SDS011;15634;48.766;2.272;2024-02-26T06:24:45;19.70;;;4.22;;
10226;SDS011;15634;48.766;2.272;2024-02-26T06:27:11;11.35;;;3.92;;
10226;SDS011;15634;48.766;2.272;2024-02-26T06:29:37;16.25;;;4.15;;
10226;SDS011;15634;48.766;2.272;2024-02-26T06:32:04;16.50;;;4.50;;
10226;SDS011;15634;48.766;2.272;2024-02-26T06:34:30;17.23;;;4.60;;
10226;SDS011;15634;48.766;2.272;2024-02-26T06:36:56;16.55;;;4.53;;
10226;SDS011;15634;48.766;2.272;2024-02-26T06:39:22;15.90;;;4.82;;
10226;SDS011;15634;48.766;2.272;2024-02-26T06:41:48;19.58;;;4.72;;
10226;SDS011;15634;48.766;2.272;2024-02-26T06:44:14;14.50;;;4.60;;
10226;SDS011;15634;48.766;2.272;2024-02-26T06:46:40;18.95;;;4.53;;
10226;SDS011;15634;48.766;2.272;2024-02-26T06:49:06;18.50;;;5.07;;
10226;SDS011;15634;48.766;2.272;2024-02-26T06:51:31;18.60;;;5.00;;
10226;SDS011;15634;48.766;2.272;2024-02-26T06:53:57;19.27;;;5.10;;
10226;SDS011;15634;48.766;2.272;2024-02-26T06:56:23;14.80;;;5.00;;
10226;SDS011;15634;48.766;2.272;2024-02-26T06:58:49;20.27;;;5.53;;
10226;SDS011;15634;48.766;2.272;2024-02-26T07:01:15;17.55;;;5.55;;
10226;SDS011;15634;48.766;2.272;2024-02-26T07:03:41;17.40;;;6.40;;
10226;SDS011;15634;48.766;2.272;2024-02-26T07:06:08;21.02;;;6.05;;
10226;SDS011;15634;48.766;2.272;2024-02-26T07:08:33;14.02;;;5.50;;
10226;SDS011;15634;48.766;2.272;2024-02-26T07:10:59;18.92;;;7.07;;
10226;SDS011;15634;48.766;2.272;2024-02-26T07:13:25;16.88;;;6.22;;
10226;SDS011;15634;48.766;2.272;2024-02-26T07:15:51;16.80;;;5.55;;
10226;SDS011;15634;48.766;2.272;2024-02-26T07:18:17;15.55;;;6.28;;
10226;SDS011;15634;48.766;2.272;2024-02-26T07:20:43;19.23;;;6.40;;
10226;SDS011;15634;48.766;2.272;2024-02-26T07:23:09;16.50;;;5.80;;
10226;SDS011;15634;48.766;2.272;2024-02-26T07:25:35;20.08;;;6.72;;
10226;SDS011;15634;48.766;2.272;2024-02-26T07:28:02;21.33;;;7.38;;
10226;SDS011;15634;48.766;2.272;2024-02-26T07:30:27;22.67;;;8.52;;
10226;SDS011;15634;48.766;2.272;2024-02-26T07:32:54;24.60;;;7.15;;
10226;SDS011;15634;48.766;2.272;2024-02-26T07:35:21;13.70;;;5.50;;
10226;SDS011;15634;48.766;2.272;2024-02-26T07:37:48;17.83;;;5.88;;
10226;SDS011;15634;48.766;2.272;2024-02-26T07:40:14;19.23;;;5.72;;
10226;SDS011;15634;48.766;2.272;2024-02-26T07:42:40;23.27;;;5.88;;
10226;SDS011;15634;48.766;2.272;2024-02-26T07:45:06;18.10;;;6.57;;
10226;SDS011;15634;48.766;2.272;2024-02-26T07:47:32;20.88;;;5.68;;
10226;SDS011;15634;48.766;2.272;2024-02-26T07:50:00;15.68;;;5.07;;
10226;SDS011;15634;48.766;2.272;2024-02-26T07:52:26;16.02;;;5.28;;
10226;SDS011;15634;48.766;2.272;2024-02-26T07:54:52;19.65;;;5.00;;
10226;SDS011;15634;48.766;2.272;2024-02-26T07:57:18;17.70;;;6.15;;
10226;SDS011;15634;48.766;2.272;2024-02-26T07:59:46;20.15;;;6.25;;
10226;SDS011;15634;48.766;2.272;2024-02-26T08:02:14;15.40;;;6.10;;
10226;SDS011;15634;48.766;2.272;2024-02-26T08:04:40;22.25;;;11.70;;
10226;SDS011;15634;48.766;2.272;2024-02-26T08:07:06;17.45;;;5.78;;
10226;SDS011;15634;48.766;2.272;2024-02-26T08:09:32;14.88;;;4.72;;
10226;SDS011;15634;48.766;2.272;2024-02-26T08:11:58;18.45;;;5.22;;
10226;SDS011;15634;48.766;2.272;2024-02-26T08:14:24;13.48;;;5.32;;
10226;SDS011;15634;48.766;2.272;2024-02-26T08:16:50;14.95;;;4.68;;
10226;SDS011;15634;48.766;2.272;2024-02-26T08:19:16;14.02;;;4.55;;
10226;SDS011;15634;48.766;2.272;2024-02-26T08:21:42;15.82;;;4.50;;
10226;SDS011;15634;48.766;2.272;2024-02-26T08:24:08;14.15;;;4.97;;
10226;SDS011;15634;48.766;2.272;2024-02-26T08:26:34;7.72;;;4.30;;
10226;SDS011;15634;48.766;2.272;2024-02-26T08:29:00;12.88;;;4.80;;
10226;SDS011;15634;48.766;2.272;2024-02-26T08:31:26;13.25;;;4.00;;
10226;SDS011;15634;48.766;2.272;2024-02-26T08:33:53;9.68;;;4.35;;
10226;SDS011;15634;48.766;2.272;2024-02-26T08:36:19;13.93;;;4.93;;
10226;SDS011;15634;48.766;2.272;2024-02-26T08:38:45;8.85;;;3.72;;
10226;SDS011;15634;48.766;2.272;2024-02-26T08:41:11;13.27;;;4.57;;
10226;SDS011;15634;48.766;2.272;2024-02-26T08:43:38;15.15;;;4.65;;
10226;SDS011;15634;48.766;2.272;2024-02-26T08:46:07;12.65;;;5.55;;
10226;SDS011;15634;48.766;2.272;2024-02-26T08:48:34;16.20;;;7.22;;
10226;SDS011;15634;48.766;2.272;2024-02-26T08:51:00;17.48;;;8.05;;
10226;SDS011;15634;48.766;2.272;2024-02-26T08:53:26;15.65;;;5.85;;
10226;SDS011;15634;48.766;2.272;2024-02-26T08:55:52;25.60;;;11.18;;
10226;SDS011;15634;48.766;2.272;2024-02-26T08:58:18;15.55;;;7.45;;
10226;SDS011;15634;48.766;2.272;2024-02-26T09:00:45;16.23;;;6.75;;
10226;SDS011;15634;48.766;2.272;2024-02-26T09:03:11;14.30;;;7.63;;
10226;SDS011;15634;48.766;2.272;2024-02-26T09:05:38;13.95;;;6.55;;
10226;SDS011;15634;48.766;2.272;2024-02-26T09:08:04;23.95;;;10.48;;
10226;SDS011;15634;48.766;2.272;2024-02-26T09:10:30;21.08;;;8.35;;
10226;SDS011;15634;48.766;2.272;2024-02-26T09:12:57;20.08;;;6.63;;
10226;SDS011;15634;48.766;2.272;2024-02-26T09:15:23;15.50;;;6.35;;
10226;SDS011;15634;48.766;2.272;2024-02-26T09:17:49;13.77;;;6.13;;
10226;SDS011;15634;48.766;2.272;2024-02-26T09:20:16;13.30;;;6.78;;
10226;SDS011;15634;48.766;2.272;2024-02-26T09:22:46;11.52;;;5.43;;
10226;SDS011;15634;48.766;2.272;2024-02-26T09:25:13;15.65;;;6.72;;
10226;SDS011;15634;48.766;2.272;2024-02-26T09:27:42;15.25;;;5.20;;
10226;SDS011;15634;48.766;2.272;2024-02-26T09:30:09;16.88;;;6.97;;
10226;SDS011;15634;48.766;2.272;2024-02-26T09:32:35;13.65;;;5.45;;
10226;SDS011;15634;48.766;2.272;2024-02-26T09:35:01;12.85;;;5.43;;
10226;SDS011;15634;48.766;2.272;2024-02-26T09:37:28;17.85;;;6.10;;
10226;SDS011;15634;48.766;2.272;2024-02-26T09:39:54;15.20;;;5.07;;
10226;SDS011;15634;48.766;2.272;2024-02-26T09:42:20;13.55;;;5.20;;
10226;SDS011;15634;48.766;2.272;2024-02-26T09:44:46;11.77;;;5.22;;
10226;SDS011;15634;48.766;2.272;2024-02-26T09:47:15;16.45;;;5.35;;
10226;SDS011;15634;48.766;2.272;2024-02-26T09:49:42;11.25;;;5.15;;
10226;SDS011;15634;48.766;2.272;2024-02-26T09:52:08;15.98;;;6.32;;
10226;SDS011;15634;48.766;2.272;2024-02-26T09:54:35;11.75;;;5.10;;
10226;SDS011;15634;48.766;2.272;2024-02-26T09:57:02;13.25;;;5.95;;
10226;SDS011;15634;48.766;2.272;2024-02-26T09:59:34;19.55;;;6.20;;
10226;SDS011;15634;48.766;2.272;2024-02-26T10:02:03;16.98;;;7.45;;
10226;SDS011;15634;48.766;2.272;2024-02-26T10:04:29;15.65;;;5.80;;
10226;SDS011;15634;48.766;2.272;2024-02-26T10:06:56;15.45;;;5.93;;
10226;SDS011;15634;48.766;2.272;2024-02-26T10:09:24;12.63;;;5.90;;
10226;SDS011;15634;48.766;2.272;2024-02-26T10:11:50;14.45;;;5.68;;
10226;SDS011;15634;48.766;2.272;2024-02-26T10:14:16;12.20;;;5.88;;
10226;SDS011;15634;48.766;2.272;2024-02-26T10:16:42;17.83;;;5.35;;
10226;SDS011;15634;48.766;2.272;2024-02-26T10:19:08;12.93;;;4.72;;
10226;SDS011;15634;48.766;2.272;2024-02-26T10:21:34;14.73;;;5.25;;
10226;SDS011;15634;48.766;2.272;2024-02-26T10:24:02;15.95;;;4.82;;
10226;SDS011;15634;48.766;2.272;2024-02-26T10:26:28;10.98;;;5.32;;
10226;SDS011;15634;48.766;2.272;2024-02-26T10:28:53;34.05;;;18.70;;
10226;SDS011;15634;48.766;2.272;2024-02-26T10:31:26;13.65;;;5.55;;
10226;SDS011;15634;48.766;2.272;2024-02-26T10:33:54;12.57;;;4.47;;
10226;SDS011;15634;48.766;2.272;2024-02-26T10:36:21;19.17;;;8.55;;
10226;SDS011;15634;48.766;2.272;2024-02-26T10:38:47;10.18;;;4.60;;
10226;SDS011;15634;48.766;2.272;2024-02-26T10:41:13;8.80;;;4.30;;
10226;SDS011;15634;48.766;2.272;2024-02-26T10:43:49;10.38;;;3.83;;
10226;SDS011;15634;48.766;2.272;2024-02-26T10:46:17;6.07;;;3.63;;
10226;SDS011;15634;48.766;2.272;2024-02-26T10:48:49;11.43;;;4.25;;
10226;SDS011;15634;48.766;2.272;2024-02-26T10:51:16;12.80;;;4.60;;
10226;SDS011;15634;48.766;2.272;2024-02-26T10:53:42;9.85;;;5.05;;
10226;SDS011;15634;48.766;2.272;2024-02-26T10:56:09;12.77;;;5.15;;
10226;SDS011;15634;48.766;2.272;2024-02-26T10:58:36;14.15;;;5.75;;
10226;SDS011;15634;48.766;2.272;2024-02-26T11:01:06;11.75;;;6.45;;
10226;SDS011;15634;48.766;2.272;2024-02-26T11:03:33;9.32;;;4.93;;
10226;SDS011;15634;48.766;2.272;2024-02-26T11:05:59;9.77;;;4.10;;
10226;SDS011;15634;48.766;2.272;2024-02-26T11:08:26;8.52;;;4.07;;
10226;SDS011;15634;48.766;2.272;2024-02-26T11:10:53;10.77;;;3.20;;
10226;SDS011;15634;48.766;2.272;2024-02-26T11:13:19;5.60;;;2.90;;
10226;SDS011;15634;48.766;2.272;2024-02-26T11:15:46;5.13;;;3.05;;
10226;SDS011;15634;48.766;2.272;2024-02-26T11:18:16;5.43;;;2.80;;
10226;SDS011;15634;48.766;2.272;2024-02-26T11:20:42;9.23;;;3.10;;
10226;SDS011;15634;48.766;2.272;2024-02-26T11:23:08;6.75;;;2.95;;
10226;SDS011;15634;48.766;2.272;2024-02-26T11:25:35;5.60;;;2.25;;
10226;SDS011;15634;48.766;2.272;2024-02-26T11:28:03;4.82;;;2.72;;
10226;SDS011;15634;48.766;2.272;2024-02-26T11:30:31;4.32;;;2.40;;
10226;SDS011;15634;48.766;2.272;2024-02-26T11:32:59;6.40;;;2.80;;
10226;SDS011;15634;48.766;2.272;2024-02-26T11:35:26;4.72;;;2.70;;
10226;SDS011;15634;48.766;2.272;2024-02-26T11:37:53;7.35;;;3.38;;
10226;SDS011;15634;48.766;2.272;2024-02-26T11:40:19;8.00;;;2.95;;
10226;SDS011;15634;48.766;2.272;2024-02-26T11:42:45;3.80;;;2.40;;
10226;SDS011;15634;48.766;2.272;2024-02-26T11:47:58;6.97;;;2.85;;
10226;SDS011;15634;48.766;2.272;2024-02-26T11:50:32;5.22;;;2.90;;
10226;SDS011;15634;48.766;2.272;2024-02-26T11:53:19;4.95;;;3.10;;
10226;SDS011;15634;48.766;2.272;2024-02-26T11:55:45;4.00;;;2.78;;
10226;SDS011;15634;48.766;2.272;2024-02-26T11:58:11;6.15;;;3.00;;
10226;SDS011;15634;48.766;2.272;2024-02-26T12:00:39;6.25;;;3.20;;
10226;SDS011;15634;48.766;2.272;2024-02-26T12:03:05;5.00;;;3.08;;
10226;SDS011;15634;48.766;2.272;2024-02-26T12:05:33;7.75;;;4.43;;
10226;SDS011;15634;48.766;2.272;2024-02-26T12:08:00;5.57;;;3.20;;
10226;SDS011;15634;48.766;2.272;2024-02-26T12:10:32;5.60;;;3.33;;
10226;SDS011;15634;48.766;2.272;2024-02-26T12:13:02;6.03;;;2.70;;
10226;SDS011;15634;48.766;2.272;2024-02-26T12:15:32;4.45;;;3.20;;
10226;SDS011;15634;48.766;2.272;2024-02-26T12:18:00;6.50;;;3.35;;
10226;SDS011;15634;48.766;2.272;2024-02-26T12:20:27;4.68;;;3.13;;
10226;SDS011;15634;48.766;2.272;2024-02-26T12:22:53;5.35;;;3.53;;
10226;SDS011;15634;48.766;2.272;2024-02-26T12:25:23;5.53;;;3.75;;
10226;SDS011;15634;48.766;2.272;2024-02-26T12:27:51;8.63;;;4.68;;
10226;SDS011;15634;48.766;2.272;2024-02-26T12:30:17;8.65;;;5.28;;
10226;SDS011;15634;48.766;2.272;2024-02-26T12:32:44;4.90;;;4.03;;
10226;SDS011;15634;48.766;2.272;2024-02-26T12:35:10;6.05;;;4.30;;
10226;SDS011;15634;48.766;2.272;2024-02-26T12:37:36;7.55;;;4.63;;
10226;SDS011;15634;48.766;2.272;2024-02-26T12:40:05;9.80;;;4.68;;
10226;SDS011;15634;48.766;2.272;2024-02-26T12:42:32;8.68;;;4.50;;
10226;SDS011;15634;48.766;2.272;2024-02-26T12:45:04;6.78;;;3.97;;
10226;SDS011;15634;48.766;2.272;2024-02-26T12:47:34;12.05;;;3.88;;
10226;SDS011;15634;48.766;2.272;2024-02-26T12:50:00;6.28;;;4.13;;
10226;SDS011;15634;48.766;2.272;2024-02-26T12:52:26;6.68;;;4.50;;
10226;SDS011;15634;48.766;2.272;2024-02-26T12:54:53;6.50;;;3.53;;
10226;SDS011;15634;48.766;2.272;2024-02-26T12:57:19;7.03;;;4.85;;
10226;SDS011;15634;48.766;2.272;2024-02-26T12:59:46;7.45;;;5.05;;
10226;SDS011;15634;48.766;2.272;2024-02-26T13:02:12;5.88;;;4.38;;
10226;SDS011;15634;48.766;2.272;2024-02-26T13:04:38;6.53;;;4.32;;
10226;SDS011;15634;48.766;2.272;2024-02-26T13:07:04;8.73;;;4.82;;
10226;SDS011;15634;48.766;2.272;2024-02-26T13:09:34;8.93;;;4.13;;
10226;SDS011;15634;48.766;2.272;2024-02-26T13:12:03;4.80;;;3.33;;
10226;SDS011;15634;48.766;2.272;2024-02-26T13:14:29;6.07;;;3.35;;
10226;SDS011;15634;48.766;2.272;2024-02-26T13:17:00;5.13;;;4.07;;
10226;SDS011;15634;48.766;2.272;2024-02-26T13:19:27;5.07;;;3.30;;
10226;SDS011;15634;48.766;2.272;2024-02-26T13:21:53;8.45;;;3.63;;
10226;SDS011;15634;48.766;2.272;2024-02-26T13:24:19;7.03;;;3.60;;
10226;SDS011;15634;48.766;2.272;2024-02-26T13:26:47;5.88;;;3.65;;
10226;SDS011;15634;48.766;2.272;2024-02-26T13:29:19;6.18;;;3.80;;
10226;SDS011;15634;48.766;2.272;2024-02-26T13:31:44;6.07;;;3.58;;
10226;SDS011;15634;48.766;2.272;2024-02-26T13:34:11;6.28;;;3.42;;
10226;SDS011;15634;48.766;2.272;2024-02-26T13:36:37;4.07;;;3.00;;
10226;SDS011;15634;48.766;2.272;2024-02-26T13:39:03;4.22;;;3.28;;
10226;SDS011;15634;48.766;2.272;2024-02-26T13:41:30;5.78;;;3.97;;
10226;SDS011;15634;48.766;2.272;2024-02-26T13:43:57;6.55;;;3.60;;
10226;SDS011;15634;48.766;2.272;2024-02-26T13:46:23;4.45;;;3.42;;
10226;SDS011;15634;48.766;2.272;2024-02-26T13:48:48;4.30;;;3.33;;
10226;SDS011;15634;48.766;2.272;2024-02-26T13:51:14;3.58;;;3.03;;
10226;SDS011;15634;48.766;2.272;2024-02-26T13:53:41;4.35;;;3.20;;
10226;SDS011;15634;48.766;2.272;2024-02-26T13:56:07;5.50;;;4.00;;
10226;SDS011;15634;48.766;2.272;2024-02-26T13:58:35;5.90;;;4.07;;
10226;SDS011;15634;48.766;2.272;2024-02-26T14:01:01;4.22;;;3.53;;
10226;SDS011;15634;48.766;2.272;2024-02-26T14:03:28;5.63;;;3.70;;
10226;SDS011;15634;48.766;2.272;2024-02-26T14:05:54;5.38;;;3.78;;
10226;SDS011;15634;48.766;2.272;2024-02-26T14:08:21;6.38;;;4.63;;
10226;SDS011;15634;48.766;2.272;2024-02-26T14:10:48;5.00;;;3.97;;
10226;SDS011;15634;48.766;2.272;2024-02-26T14:13:14;5.65;;;4.03;;
10226;SDS011;15634;48.766;2.272;2024-02-26T14:15:41;5.45;;;3.55;;
10226;SDS011;15634;48.766;2.272;2024-02-26T14:18:09;4.22;;;3.33;;
10226;SDS011;15634;48.766;2.272;2024-02-26T14:20:35;6.22;;;3.40;;
10226;SDS011;15634;48.766;2.272;2024-02-26T14:23:01;7.57;;;3.90;;
10226;SDS011;15634;48.766;2.272;2024-02-26T14:25:26;4.60;;;3.10;;
10226;SDS011;15634;48.766;2.272;2024-02-26T14:27:52;4.07;;;2.75;;
10226;SDS011;15634;48.766;2.272;2024-02-26T14:30:18;4.45;;;3.13;;
10226;SDS011;15634;48.766;2.272;2024-02-26T14:32:44;5.05;;;3.30;;
10226;SDS011;15634;48.766;2.272;2024-02-26T14:35:11;5.63;;;3.80;;
10226;SDS011;15634;48.766;2.272;2024-02-26T14:37:37;7.50;;;3.72;;